CheckWX is a tool to help pilots better visualize weather data.  It is not intended as a substitute for an official pre-flight weather briefing.

05:16:49 UTC

KMHK METAR
Manhattan Regional Airport
Manhattan, Kansas, USA
Current

25 mins ago

KMHK 240452Z AUTO 30009G17KT 10SM CLR M02/ A2993 RMK AO2 SLP146 T1017 $
Observed
Feb-24 @ 04:52 UTC
Wind
  • 300° at 9 KTS
  • Gusting to 17 KTS
Visibility
10 SM
Flight Rules
VFR
Cloud Levels
  • Clear skies
Temperature
-2°C / 28°F
Altimeter
29.93" Hg
Pressure
1014.6 hPa
Previous

1 hour ago

KMHK 240352Z AUTO 32007G21KT 300V020 10SM SCT055 BKN090 OVC110 M02/M03 A2989 RMK AO2 SNE09 SLP129 P0000 T10171028 $
Observed
Feb-24 @ 03:52 UTC
Wind
  • 320° at 7 KTS
  • Gusting to 21 KTS
Visibility
10 SM
Flight Rules
VFR
Cloud Levels
  • Scattered at 5,500' AGL
  • Broken at 9,000' AGL
  • Overcast at 11,000' AGL
Temperature
-2°C / 28°F
Dewpoint
-3°C / 27°F
Humidity
93%
Altimeter
29.89" Hg
Pressure
1012.9 hPa
Current Rain
0.01"
Previous

2 hours ago

KMHK 240319Z AUTO 10SM FEW017 BKN070 OVC090 M02/M03 A2986 RMK AO2 SNE09 P0000 T10171028 $
Observed
Feb-24 @ 03:19 UTC
Visibility
10 SM
Flight Rules
VFR
Cloud Levels
  • Few at 1,700' AGL
  • Broken at 7,000' AGL
  • Overcast at 9,000' AGL
Temperature
-2°C / 28°F
Dewpoint
-3°C / 27°F
Humidity
93%
Altimeter
29.86" Hg
Pressure
1011.22 hPa
Current Rain
0.01"